Banks, Idaho
Current Conditions -  °F | °C
As of 1:53 PM on Saturday 22 Nov 2014 (Local Time) from KBOI Reporting Station
Clear Clear  
Wind Chill: 38°   Ceiling: Unl
Heat Index: 44°   Visibility: 10mi
Dew Point: 35°   Wind: 12mph
Humidity: 71%   Direction: 310°NW
Pressure: 29.8"   Gusts: NA
Location:  44.08°N, 116.13°W
Report Text: KBOI 222053Z 31010KT 10SM CLR 07/02 A2980 RMK AO2 SLP094 T00670017 53013
Loading
Personal Weather Stations






























Interactive Weather Map New forecast layout! Learn more

10-Day Weather Forecast

Advertisements
Track Severe Weather on mobile